Time;durP1;ratioP1;P1;durP2;ratioP2;P2;SDS_P1;SDS_P2;PMS_P1;PMS_P2;Temp;Humidity;BMP_temperature;BMP_pressure;BME280_temperature;BME280_humidity;BME280_pressure;Samples;Min_cycle;Max_cycle;Signal;HPM_P1;HPM_P2
2022/03/09 00:00:05;;;;;;;;;62.75;47.50;;;;;7.89;48.90;101669.56;5024466;28;45385;-66
2022/03/09 00:02:31;;;;;;;;;63.25;46.00;;;;;7.91;49.34;101655.94;5024567;28;45466;-67
2022/03/09 00:04:56;;;;;;;;;59.00;44.00;;;;;7.90;49.15;101646.06;5024190;28;46414;-66
2022/03/09 00:07:22;;;;;;;;;64.00;47.50;;;;;7.92;49.07;101650.41;5023814;28;46669;-67
2022/03/09 00:09:47;;;;;;;;;64.50;52.00;;;;;7.90;48.84;101651.47;5039038;28;45505;-66
2022/03/09 00:12:12;;;;;;;;;61.25;46.00;;;;;7.95;48.63;101665.56;5024571;28;45379;-66
2022/03/09 00:14:38;;;;;;;;;65.50;50.00;;;;;7.97;48.58;101659.06;5037927;28;47235;-66
2022/03/09 00:17:03;;;;;;;;;61.75;46.75;;;;;8.00;48.19;101663.41;5023225;28;45430;-67
2022/03/09 00:19:29;;;;;;;;;63.00;47.50;;;;;7.98;48.21;101655.38;5024036;28;45303;-66
2022/03/09 00:21:54;;;;;;;;;58.50;44.25;;;;;8.02;48.83;101664.16;5024136;28;45423;-67
2022/03/09 00:24:19;;;;;;;;;59.50;46.75;;;;;8.04;48.45;101670.31;5022880;28;47173;-66
2022/03/09 00:26:46;;;;;;;;;63.75;47.00;;;;;8.04;48.29;101659.47;5022311;28;45414;-67
2022/03/09 00:29:11;;;;;;;;;59.50;46.75;;;;;8.05;48.08;101653.09;5022810;28;45510;-66
2022/03/09 00:31:37;;;;;;;;;63.50;47.00;;;;;8.04;48.39;101654.06;5023013;28;45321;-69
2022/03/09 00:34:02;;;;;;;;;52.25;42.50;;;;;8.07;48.38;101672.81;5023844;28;46749;-66
2022/03/09 00:36:27;;;;;;;;;62.50;47.00;;;;;8.07;48.49;101670.09;5023816;28;45411;-66
2022/03/09 00:38:53;;;;;;;;;62.25;45.00;;;;;8.09;48.41;101668.16;5020467;28;45428;-66
2022/03/09 00:41:19;;;;;;;;;67.25;47.50;;;;;8.05;48.20;101674.75;5024732;28;45367;-66
2022/03/09 00:43:44;;;;;;;;;64.25;48.75;;;;;8.09;48.13;101665.44;5022030;28;48169;-67
2022/03/09 00:46:10;;;;;;;;;62.25;46.50;;;;;8.11;48.38;101672.47;5024034;28;45461;-66
2022/03/09 00:48:35;;;;;;;;;59.25;44.50;;;;;8.10;47.81;101669.88;5019362;28;45437;-66
2022/03/09 00:51:00;;;;;;;;;63.25;47.50;;;;;8.11;48.44;101679.72;5023533;28;45193;-68
2022/03/09 00:53:26;;;;;;;;;67.00;47.25;;;;;8.06;48.49;101677.34;5021617;28;47197;-66
2022/03/09 00:55:51;;;;;;;;;61.75;47.00;;;;;8.00;48.96;101680.50;5022749;28;45701;-66
2022/03/09 00:58:16;;;;;;;;;64.50;50.00;;;;;7.98;49.51;101685.16;5022982;28;46022;-66
2022/03/09 01:00:42;;;;;;;;;67.00;48.25;;;;;7.98;49.32;101695.97;5024248;28;45566;-66
2022/03/09 01:03:07;;;;;;;;;59.25;46.00;;;;;7.95;49.87;101687.22;5022990;28;46601;-68
2022/03/09 01:05:32;;;;;;;;;62.25;47.00;;;;;7.92;50.11;101693.69;5023459;28;45393;-67
2022/03/09 01:07:58;;;;;;;;;64.75;47.00;;;;;7.87;49.71;101689.59;5023168;28;45430;-67
2022/03/09 01:10:23;;;;;;;;;60.00;46.75;;;;;7.82;49.51;101690.78;5024218;28;45428;-67
2022/03/09 01:12:49;;;;;;;;;67.25;47.50;;;;;7.79;50.19;101687.44;5015931;28;46562;-66
2022/03/09 01:15:14;;;;;;;;;65.00;49.75;;;;;7.76;49.91;101691.19;5023790;28;45260;-66
2022/03/09 01:17:39;;;;;;;;;60.00;46.50;;;;;7.71;50.17;101701.50;5022741;28;45334;-66
2022/03/09 01:20:06;;;;;;;;;63.25;47.75;;;;;7.66;50.44;101690.13;5024120;28;45449;-67
2022/03/09 01:22:32;;;;;;;;;74.00;54.50;;;;;7.56;50.71;101694.44;5022425;28;46668;-66
2022/03/09 01:24:57;;;;;;;;;63.00;48.50;;;;;7.54;50.79;101704.47;5021958;28;45459;-67
2022/03/09 01:27:23;;;;;;;;;59.50;48.75;;;;;7.53;50.99;101701.88;5022704;28;45547;-66
2022/03/09 01:29:48;;;;;;;;;70.00;52.50;;;;;7.52;51.37;101705.59;5023502;28;45363;-66
2022/03/09 01:32:13;;;;;;;;;67.75;51.00;;;;;7.48;51.53;101696.81;5022721;28;45502;-66
2022/03/09 01:34:39;;;;;;;;;68.75;49.25;;;;;7.45;51.14;101693.47;5021755;28;46523;-66
2022/03/09 01:37:04;;;;;;;;;63.00;47.25;;;;;7.42;51.71;101702.63;5019985;28;45378;-66
2022/03/09 01:39:29;;;;;;;;;65.25;47.25;;;;;7.40;51.47;101696.47;5022241;28;45449;-66
2022/03/09 01:41:55;;;;;;;;;65.75;50.25;;;;;7.42;51.62;101692.69;5022580;28;45419;-66
2022/03/09 01:44:22;;;;;;;;;55.75;44.00;;;;;7.42;51.85;101694.53;5022680;28;45304;-66
2022/03/09 01:46:50;;;;;;;;;64.50;50.25;;;;;7.37;52.33;101688.56;5020292;28;45448;-66
2022/03/09 01:49:16;;;;;;;;;67.50;49.00;;;;;7.35;51.87;101683.25;5021858;28;45598;-66
2022/03/09 01:51:44;;;;;;;;;62.50;44.50;;;;;7.33;52.34;101684.34;5022295;28;46586;-66
2022/03/09 01:54:10;;;;;;;;;70.25;48.75;;;;;7.29;52.25;101688.22;5021964;28;45345;-66
2022/03/09 01:56:36;;;;;;;;;63.75;49.75;;;;;7.26;52.28;101689.28;5022275;28;45244;-66
2022/03/09 01:59:06;;;;;;;;;62.00;48.75;;;;;7.24;52.59;101684.94;5022402;28;45399;-66
2022/03/09 02:01:31;;;;;;;;;59.25;43.50;;;;;7.21;52.67;101682.47;5022551;28;46371;-66
2022/03/09 02:03:57;;;;;;;;;65.50;48.75;;;;;7.25;52.71;101686.69;5020728;28;45415;-66
2022/03/09 02:06:23;;;;;;;;;68.00;49.25;;;;;7.25;52.35;101686.69;5022346;28;45382;-67
2022/03/09 02:11:34;;;;;;;;;57.50;48.00;;;;;7.14;53.07;101678.47;5022117;28;45451;-66
2022/03/09 02:14:01;;;;;;;;;71.25;48.00;;;;;7.16;53.01;101677.34;5021361;28;45472;-66
2022/03/09 02:16:27;;;;;;;;;59.75;46.50;;;;;7.17;53.50;101678.22;5021529;28;45407;-66
2022/03/09 02:18:52;;;;;;;;;65.25;48.50;;;;;7.15;53.26;101672.09;5019980;28;45347;-66
2022/03/09 02:21:20;;;;;;;;;72.50;50.25;;;;;7.17;53.28;101675.53;5021372;28;45325;-66
2022/03/09 02:23:46;;;;;;;;;65.50;50.25;;;;;7.13;53.08;101674.03;5021163;28;45675;-66
2022/03/09 02:26:12;;;;;;;;;60.00;50.00;;;;;7.14;53.23;101678.47;5020379;28;45447;-66
2022/03/09 02:28:39;;;;;;;;;66.00;50.00;;;;;7.13;53.47;101671.31;5021088;28;45512;-66
2022/03/09 02:31:04;;;;;;;;;71.50;53.50;;;;;7.09;52.72;101685.97;5021521;28;45658;-66
2022/03/09 02:33:30;;;;;;;;;61.00;47.25;;;;;7.03;53.58;101685.44;5016459;28;45366;-66
2022/03/09 02:35:55;;;;;;;;;69.75;52.50;;;;;7.03;53.91;101689.97;5020143;28;45490;-67
2022/03/09 02:38:21;;;;;;;;;65.25;52.00;;;;;7.01;53.84;101695.47;5021446;28;45312;-66
2022/03/09 02:40:46;;;;;;;;;71.50;52.75;;;;;6.98;53.68;101690.28;5021717;28;45348;-66
2022/03/09 02:43:12;;;;;;;;;70.75;52.00;;;;;6.94;54.68;101690.63;5020306;28;45442;-66
2022/03/09 02:45:38;;;;;;;;;71.00;50.00;;;;;6.90;54.75;101686.38;5022363;28;45414;-68
2022/03/09 02:48:03;;;;;;;;;68.50;52.50;;;;;6.87;54.34;101683.84;5022009;28;45379;-66
2022/03/09 02:50:28;;;;;;;;;72.00;52.25;;;;;6.84;54.59;101681.38;5021790;28;45717;-66
2022/03/09 02:52:54;;;;;;;;;72.50;51.75;;;;;6.84;54.33;101689.47;5021565;28;45265;-66
2022/03/09 02:55:19;;;;;;;;;72.75;53.00;;;;;6.81;54.52;101695.06;5022310;28;45865;-67
2022/03/09 02:57:45;;;;;;;;;76.75;52.75;;;;;6.83;54.28;101687.75;5021302;28;45554;-66
2022/03/09 03:00:11;;;;;;;;;68.75;54.00;;;;;6.82;55.41;101688.69;5021642;28;46344;-66
2022/03/09 03:02:37;;;;;;;;;68.75;52.25;;;;;6.80;55.53;101702.31;5021607;28;45569;-67
2022/03/09 03:05:03;;;;;;;;;65.50;45.50;;;;;6.81;55.52;101703.16;5021996;28;45386;-68
2022/03/09 03:07:29;;;;;;;;;60.50;50.25;;;;;6.77;55.42;101704.34;5021678;28;45325;-66
2022/03/09 03:09:55;;;;;;;;;67.25;50.25;;;;;6.79;55.93;101703.31;5021875;28;45383;-67
2022/03/09 03:12:21;;;;;;;;;65.25;49.00;;;;;6.79;56.38;101710.53;5023978;28;45396;-67
2022/03/09 03:14:46;;;;;;;;;53.75;42.00;;;;;6.81;57.15;101712.16;5025381;28;45303;-66
2022/03/09 03:17:11;;;;;;;;;63.00;49.25;;;;;6.84;58.11;101709.25;5025259;28;45277;-66
2022/03/09 03:19:37;;;;;;;;;59.50;44.75;;;;;6.84;58.53;101706.56;5026282;28;47490;-66
2022/03/09 03:22:02;;;;;;;;;55.25;43.50;;;;;6.84;58.62;101703.84;5024643;28;45437;-67
2022/03/09 03:24:28;;;;;;;;;58.75;43.75;;;;;6.82;59.54;101703.06;5025397;28;45530;-67
2022/03/09 03:26:53;;;;;;;;;42.75;38.75;;;;;6.83;59.01;101691.31;5025180;28;45485;-67
2022/03/09 03:29:19;;;;;;;;;49.75;36.25;;;;;6.87;59.95;101691.97;5025065;28;46641;-66
2022/03/09 03:31:44;;;;;;;;;47.50;36.00;;;;;6.89;61.20;101688.19;5024578;28;45328;-66
2022/03/09 03:34:09;;;;;;;;;32.00;28.25;;;;;6.92;61.18;101685.31;5024948;28;45307;-67
2022/03/09 03:36:35;;;;;;;;;44.00;36.50;;;;;6.96;61.92;101692.22;5025563;28;45252;-66
2022/03/09 03:39:00;;;;;;;;;33.50;30.00;;;;;7.01;61.86;101695.47;5023163;28;47232;-67
2022/03/09 03:41:26;;;;;;;;;42.00;33.25;;;;;7.00;62.13;101685.66;5037181;28;45577;-67
2022/03/09 03:43:51;;;;;;;;;35.50;32.50;;;;;6.97;63.63;101693.97;5023456;28;45759;-66
2022/03/09 03:46:16;;;;;;;;;39.00;28.50;;;;;6.94;63.66;101694.16;5025609;28;45448;-66
2022/03/09 03:48:42;;;;;;;;;37.75;32.75;;;;;6.87;64.65;101692.81;5024120;28;46214;-67
2022/03/09 03:51:07;;;;;;;;;69.25;53.25;;;;;6.80;63.48;101686.09;5023346;28;46084;-67
2022/03/09 03:53:32;;;;;;;;;69.50;56.25;;;;;6.76;63.61;101689.13;5033858;28;45298;-67
2022/03/09 03:55:58;;;;;;;;;66.00;47.25;;;;;6.72;63.97;101691.13;5025285;28;45438;-67
2022/03/09 03:58:23;;;;;;;;;59.00;43.75;;;;;6.71;63.13;101692.13;5023948;28;46535;-66
2022/03/09 04:00:48;;;;;;;;;61.75;48.00;;;;;6.71;61.68;101700.22;5024785;28;45374;-66
2022/03/09 04:03:14;;;;;;;;;76.25;55.25;;;;;6.66;60.55;101707.75;5024292;28;45296;-67
2022/03/09 04:05:39;;;;;;;;;78.75;58.00;;;;;6.58;59.81;101707.38;5024739;28;45303;-67
2022/03/09 04:08:05;;;;;;;;;80.50;56.00;;;;;6.43;59.75;101701.13;5021555;28;45533;-68
2022/03/09 04:10:30;;;;;;;;;77.25;57.25;;;;;6.34;61.07;101699.03;5024438;28;45398;-66
2022/03/09 04:13:00;;;;;;;;;68.75;51.75;;;;;6.38;60.73;101708.66;5024199;28;45509;-66
2022/03/09 04:15:25;;;;;;;;;76.25;54.75;;;;;6.36;61.06;101699.78;5024865;28;45414;-66
2022/03/09 04:17:51;;;;;;;;;70.25;53.00;;;;;6.39;60.81;101704.13;5023422;28;46152;-67
2022/03/09 04:20:16;;;;;;;;;71.50;53.75;;;;;6.41;60.73;101715.72;5022470;28;45370;-66
2022/03/09 04:22:43;;;;;;;;;71.50;50.50;;;;;6.40;61.38;101713.97;5021755;28;45810;-68
2022/03/09 04:25:09;;;;;;;;;68.00;48.75;;;;;6.28;62.72;101714.75;5019561;28;45482;-67
2022/03/09 04:27:36;;;;;;;;;76.50;53.25;;;;;6.23;62.61;101701.53;5018332;28;46716;-66
2022/03/09 04:30:03;;;;;;;;;80.00;57.25;;;;;6.22;62.13;101711.47;5017655;28;45197;-67
2022/03/09 04:32:28;;;;;;;;;78.25;55.25;;;;;6.16;60.98;101701.06;5019286;28;45299;-66
2022/03/09 04:34:53;;;;;;;;;87.25;58.50;;;;;6.16;60.89;101709.16;5024326;28;45567;-67
2022/03/09 04:37:19;;;;;;;;;68.50;55.50;;;;;6.14;61.15;101700.28;5020126;28;47972;-68
2022/03/09 04:39:45;;;;;;;;;77.00;60.00;;;;;6.16;60.82;101706.47;5024065;28;45721;-66
2022/03/09 04:42:11;;;;;;;;;72.25;52.00;;;;;6.16;61.17;101705.59;5037621;28;45483;-66
2022/03/09 04:44:37;;;;;;;;;71.50;55.50;;;;;6.17;61.04;101697.41;5023864;28;45481;-66
2022/03/09 04:47:03;;;;;;;;;72.00;53.00;;;;;6.15;60.93;101707.41;5023330;28;45564;-67
2022/03/09 04:49:28;;;;;;;;;77.75;55.00;;;;;6.14;61.24;101703.00;5023761;28;45335;-67
2022/03/09 04:51:54;;;;;;;;;65.50;53.25;;;;;6.11;61.82;101708.59;5023195;28;45850;-66
2022/03/09 04:54:19;;;;;;;;;69.75;53.25;;;;;6.09;61.46;101724.00;5024299;28;45396;-66
2022/03/09 04:56:44;;;;;;;;;68.50;53.75;;;;;6.04;62.17;101717.16;5023130;28;45529;-67
2022/03/09 04:59:10;;;;;;;;;77.75;59.75;;;;;6.03;61.11;101727.09;5023500;28;45291;-66
2022/03/09 05:01:35;;;;;;;;;77.75;57.75;;;;;6.05;60.31;101727.88;5037863;28;45417;-66
2022/03/09 05:04:00;;;;;;;;;76.50;57.75;;;;;6.05;60.42;101735.97;5023773;28;45547;-66
2022/03/09 05:06:26;;;;;;;;;79.25;58.75;;;;;6.05;60.31;101732.41;5020158;28;47059;-68
2022/03/09 05:08:51;;;;;;;;;73.25;54.00;;;;;5.94;60.92;101730.34;5022922;28;45391;-66
2022/03/09 05:11:16;;;;;;;;;71.75;56.00;;;;;5.94;61.43;101734.88;5023521;28;45489;-66
2022/03/09 05:13:42;;;;;;;;;76.00;59.50;;;;;5.93;61.04;101744.78;5023241;28;45697;-67
2022/03/09 05:16:08;;;;;;;;;77.25;57.00;;;;;5.90;61.77;101742.31;5019655;28;48261;-66
2022/03/09 05:18:37;;;;;;;;;78.50;58.75;;;;;5.87;61.68;101734.34;5022419;28;45499;-67
2022/03/09 05:21:04;;;;;;;;;73.75;56.00;;;;;5.93;60.85;101749.31;5021651;28;45410;-67
2022/03/09 05:23:29;;;;;;;;;80.00;58.25;;;;;5.91;61.07;101744.03;5023333;28;45632;-67
2022/03/09 05:25:55;;;;;;;;;76.25;58.50;;;;;5.90;61.10;101745.00;5023010;28;45463;-67
2022/03/09 05:28:20;;;;;;;;;76.00;57.50;;;;;5.89;61.71;101751.34;5022318;28;45411;-67
2022/03/09 05:30:45;;;;;;;;;78.50;58.50;;;;;5.87;61.97;101758.63;5020970;28;45515;-67
2022/03/09 05:33:11;;;;;;;;;74.75;57.00;;;;;5.87;61.82;101755.94;5019027;28;45532;-67
2022/03/09 05:35:38;;;;;;;;;76.75;57.50;;;;;5.83;61.94;101757.97;5022011;28;46595;-66
2022/03/09 05:38:04;;;;;;;;;67.25;53.25;;;;;5.78;62.29;101751.97;5022011;28;45304;-66
2022/03/09 05:40:29;;;;;;;;;66.50;54.00;;;;;5.85;63.23;101755.16;5022284;28;45347;-67
2022/03/09 05:42:55;;;;;;;;;71.25;56.00;;;;;5.84;63.13;101758.84;5022039;28;45406;-67
2022/03/09 05:45:20;;;;;;;;;71.50;52.50;;;;;5.84;63.02;101764.22;5020452;28;47462;-68
2022/03/09 05:47:45;;;;;;;;;72.50;53.50;;;;;5.83;63.85;101768.75;5019358;28;45396;-67
2022/03/09 05:50:11;;;;;;;;;71.00;53.00;;;;;5.78;64.21;101775.34;5017931;28;45893;-67
2022/03/09 05:52:36;;;;;;;;;64.75;47.50;;;;;5.75;65.05;101772.88;5019930;28;45537;-67
2022/03/09 05:55:02;;;;;;;;;67.50;53.00;;;;;5.77;65.28;101773.66;5019657;28;47047;-68
2022/03/09 05:57:27;;;;;;;;;54.25;45.25;;;;;5.78;65.81;101780.75;5018114;28;46842;-68
2022/03/09 05:59:53;;;;;;;;;57.00;46.50;;;;;5.80;65.72;101781.53;5019764;28;45757;-68
2022/03/09 06:02:19;;;;;;;;;64.00;49.50;;;;;5.87;65.72;101780.19;5020541;28;45461;-69
2022/03/09 06:04:45;;;;;;;;;66.75;49.50;;;;;5.92;65.96;101786.22;5020638;28;45551;-68
2022/03/09 06:07:11;;;;;;;;;62.50;47.00;;;;;5.93;66.03;101787.94;5018653;28;45379;-68
2022/03/09 06:09:36;;;;;;;;;62.00;49.50;;;;;5.96;66.64;101787.78;5021557;28;45413;-68
2022/03/09 06:12:02;;;;;;;;;62.75;49.50;;;;;6.00;66.21;101786.63;5022374;28;45532;-68
2022/03/09 06:14:27;;;;;;;;;62.25;46.25;;;;;6.06;65.28;101790.78;5021680;28;46663;-69
2022/03/09 06:16:53;;;;;;;;;59.50;48.25;;;;;6.07;65.78;101790.66;5021656;28;45237;-66
2022/03/09 06:19:19;;;;;;;;;62.50;49.50;;;;;6.07;65.70;101796.06;5021695;28;45224;-68
2022/03/09 06:21:45;;;;;;;;;55.00;43.25;;;;;6.10;64.95;101798.59;5020857;28;45378;-69
2022/03/09 06:24:11;;;;;;;;;65.75;51.50;;;;;6.14;64.60;101805.53;5017820;28;48236;-69
2022/03/09 06:26:37;;;;;;;;;57.25;41.00;;;;;6.14;64.13;101789.31;5036208;28;45415;-69
2022/03/09 06:29:05;;;;;;;;;61.00;50.00;;;;;6.16;63.95;101802.72;5018393;28;45465;-68
2022/03/09 06:31:32;;;;;;;;;59.25;50.25;;;;;6.15;64.13;101791.06;5036446;28;45416;-69
2022/03/09 06:33:57;;;;;;;;;68.00;50.00;;;;;6.17;63.96;101799.94;5018544;28;47339;-68
2022/03/09 06:36:23;;;;;;;;;57.50;48.50;;;;;6.17;64.35;101799.94;5021799;28;45366;-69
2022/03/09 06:38:48;;;;;;;;;61.75;46.50;;;;;6.18;64.29;101807.09;5019941;28;45628;-69
2022/03/09 06:41:14;;;;;;;;;63.75;46.00;;;;;6.19;64.29;101798.03;5017120;28;44888;-68
2022/03/09 06:43:39;;;;;;;;;63.75;45.50;;;;;6.26;64.03;101809.31;5016169;28;46451;-69
2022/03/09 06:46:04;;;;;;;;;65.00;47.25;;;;;6.31;63.50;101806.31;5022227;28;45307;-69
2022/03/09 06:48:30;;;;;;;;;62.00;48.75;;;;;6.36;64.00;101813.16;5022278;28;45381;-69
2022/03/09 06:50:55;;;;;;;;;62.50;49.25;;;;;6.45;63.94;101819.81;5024464;28;45327;-69
2022/03/09 06:53:21;;;;;;;;;61.00;47.00;;;;;6.46;63.75;101817.03;5024544;28;45516;-69
2022/03/09 06:55:46;;;;;;;;;65.25;51.00;;;;;6.54;64.19;101808.44;5025044;28;45283;-68
2022/03/09 06:58:12;;;;;;;;;61.75;45.25;;;;;6.60;64.28;101811.63;5024329;28;46057;-67
2022/03/09 07:00:37;;;;;;;;;61.50;48.25;;;;;6.70;63.81;101814.63;5025647;28;45248;-67
2022/03/09 07:03:05;;;;;;;;;67.00;43.75;;;;;6.80;63.61;101815.75;5024253;28;46439;-69
2022/03/09 07:05:32;;;;;;;;;57.00;43.00;;;;;6.87;63.62;101818.91;5022779;28;45445;-69
2022/03/09 07:07:58;;;;;;;;;53.00;41.75;;;;;6.93;63.60;101823.94;5033570;28;46036;-67
2022/03/09 07:10:23;;;;;;;;;56.75;45.00;;;;;7.01;63.21;101821.63;5023215;28;45244;-67
2022/03/09 07:12:49;;;;;;;;;54.75;43.25;;;;;7.10;64.14;101828.25;5023176;28;46779;-67
2022/03/09 07:15:15;;;;;;;;;62.50;47.50;;;;;7.14;63.98;101830.66;5024559;28;45258;-67
2022/03/09 07:17:41;;;;;;;;;65.75;48.25;;;;;7.21;64.64;101844.66;5032360;28;45465;-67
2022/03/09 07:20:07;;;;;;;;;57.25;43.75;;;;;7.32;64.11;101842.97;5020446;28;45645;-69
2022/03/09 07:22:33;;;;;;;;;61.00;46.75;;;;;7.41;64.44;101845.06;5023970;28;46279;-65
2022/03/09 07:24:58;;;;;;;;;57.50;46.25;;;;;7.48;64.47;101847.34;5024434;28;45350;-67
2022/03/09 07:27:23;;;;;;;;;56.50;44.25;;;;;7.51;63.95;101839.06;5023821;28;45524;-68
2022/03/09 07:29:49;;;;;;;;;57.50;47.00;;;;;7.53;63.80;101847.91;5024617;28;45602;-68
2022/03/09 07:32:15;;;;;;;;;59.00;45.00;;;;;7.55;63.65;101851.38;5021226;28;47447;-68
2022/03/09 07:34:41;;;;;;;;;56.00;46.00;;;;;7.56;63.32;101845.00;5022670;28;45547;-68
2022/03/09 07:37:07;;;;;;;;;61.75;46.50;;;;;7.62;63.34;101842.75;5023704;28;45628;-69
2022/03/09 07:39:32;;;;;;;;;53.00;42.25;;;;;7.79;63.64;101858.72;5024170;28;45350;-68
2022/03/09 07:41:58;;;;;;;;;59.00;46.00;;;;;7.91;63.45;101854.31;5023107;28;46539;-68
2022/03/09 07:44:24;;;;;;;;;61.25;44.25;;;;;8.01;63.71;101858.13;5022890;28;45371;-67
2022/03/09 07:46:51;;;;;;;;;59.00;45.00;;;;;8.11;63.44;101861.06;5022441;28;45201;-68
2022/03/09 07:49:18;;;;;;;;;60.00;48.00;;;;;8.13;63.47;101845.59;5032974;28;45509;-68
2022/03/09 07:51:44;;;;;;;;;60.25;46.75;;;;;8.29;62.84;101865.22;5023216;28;45347;-66
2022/03/09 07:54:09;;;;;;;;;64.00;47.50;;;;;8.36;62.24;101860.28;5024421;28;45411;-67
2022/03/09 07:56:35;;;;;;;;;59.25;47.75;;;;;8.39;62.10;101869.06;5023754;28;45385;-68
2022/03/09 07:59:02;;;;;;;;;46.25;36.00;;;;;8.38;63.52;101870.03;5022190;28;45424;-67
2022/03/09 08:01:27;;;;;;;;;49.25;39.25;;;;;8.43;64.62;101875.13;5024272;28;46518;-66
2022/03/09 08:03:54;;;;;;;;;55.25;42.25;;;;;8.56;64.28;101882.28;5023221;28;45530;-66
2022/03/09 08:06:20;;;;;;;;;48.25;38.75;;;;;8.66;65.29;101879.78;5024259;28;45248;-66
2022/03/09 08:08:45;;;;;;;;;42.00;35.25;;;;;8.74;65.69;101872.00;5024408;28;45384;-67
2022/03/09 08:11:11;;;;;;;;;44.50;39.00;;;;;8.82;66.00;101871.44;5022838;28;46129;-67
2022/03/09 08:13:36;;;;;;;;;46.00;38.00;;;;;8.93;66.22;101882.38;5023839;28;45475;-67
2022/03/09 08:16:01;;;;;;;;;40.75;35.25;;;;;9.06;65.64;101871.53;5021737;28;45454;-67
2022/03/09 08:18:27;;;;;;;;;38.25;33.00;;;;;9.09;65.95;101872.16;5018347;28;45569;-67
2022/03/09 08:20:52;;;;;;;;;39.00;35.25;;;;;9.20;65.95;101868.69;5023584;28;46167;-67
2022/03/09 08:23:17;;;;;;;;;39.75;36.75;;;;;9.28;66.44;101875.25;5022106;28;45883;-68
2022/03/09 08:25:43;;;;;;;;;46.50;35.75;;;;;9.37;66.12;101869.16;5022723;28;45382;-67
2022/03/09 08:28:08;;;;;;;;;37.25;30.50;;;;;9.48;65.54;101876.50;5023542;28;45453;-67
2022/03/09 08:30:34;;;;;;;;;39.00;33.50;;;;;9.57;64.99;101883.09;5024134;28;45443;-67
2022/03/09 08:32:59;;;;;;;;;46.25;38.00;;;;;9.68;64.57;101875.88;5023267;28;45311;-68
2022/03/09 08:35:24;;;;;;;;;39.75;35.25;;;;;9.70;64.81;101871.22;5022434;28;45534;-67
2022/03/09 08:37:50;;;;;;;;;37.25;34.50;;;;;9.86;64.00;101883.63;5030896;28;45473;-67
2022/03/09 08:40:15;;;;;;;;;38.25;34.75;;;;;9.87;64.55;101890.75;5035662;28;47170;-67
2022/03/09 08:42:41;;;;;;;;;33.25;32.00;;;;;9.93;65.19;101893.91;5022691;28;45368;-68
2022/03/09 08:45:06;;;;;;;;;24.25;21.75;;;;;9.63;67.27;101890.78;5023581;28;45531;-68
2022/03/09 08:47:31;;;;;;;;;22.50;22.50;;;;;9.56;68.12;101887.66;5022999;28;45649;-67
2022/03/09 08:49:57;;;;;;;;;24.50;22.25;;;;;9.42;69.78;101897.78;5021882;28;47120;-67
2022/03/09 08:52:23;;;;;;;;;12.25;8.50;;;;;9.21;70.16;101887.53;5022505;28;45510;-66
2022/03/09 08:54:53;;;;;;;;;28.75;26.25;;;;;9.45;69.46;101887.56;5023294;28;45342;-66
2022/03/09 08:57:19;;;;;;;;;30.75;25.75;;;;;9.53;68.99;101887.88;5036645;28;45393;-66
2022/03/09 08:59:45;;;;;;;;;22.00;22.00;;;;;9.51;68.98;101889.81;5021707;28;46912;-66
2022/03/09 09:02:10;;;;;;;;;29.50;28.25;;;;;9.53;69.01;101892.44;5022574;28;45377;-65
2022/03/09 09:04:36;;;;;;;;;27.50;23.25;;;;;9.43;68.73;101891.38;5033022;28;45400;-68
2022/03/09 09:07:02;;;;;;;;;29.25;23.75;;;;;9.40;69.48;101891.59;5022628;28;45502;-68
2022/03/09 09:09:27;;;;;;;;;30.25;26.00;;;;;9.42;69.33;101900.50;5021844;28;45378;-66
2022/03/09 09:11:54;;;;;;;;;29.50;22.25;;;;;9.26;69.65;101888.06;5023147;28;45234;-65
2022/03/09 09:14:19;;;;;;;;;27.50;25.25;;;;;9.35;69.34;101884.66;5023096;28;45261;-64
2022/03/09 09:16:45;;;;;;;;;33.25;29.50;;;;;9.29;69.33;101890.53;5023150;28;45256;-66
2022/03/09 09:19:10;;;;;;;;;31.50;25.50;;;;;9.34;69.27;101885.66;5022705;28;46344;-66
2022/03/09 09:21:36;;;;;;;;;31.00;26.50;;;;;9.48;69.07;101892.78;5021564;28;45909;-67
2022/03/09 09:24:01;;;;;;;;;33.75;33.00;;;;;9.81;68.38;101891.22;5022425;28;45448;-67
2022/03/09 09:26:26;;;;;;;;;32.00;25.75;;;;;10.37;67.45;101889.66;5023556;28;45647;-67
2022/03/09 09:28:52;;;;;;;;;31.75;28.25;;;;;10.87;66.11;101882.94;5021914;28;45456;-67
2022/03/09 09:31:17;;;;;;;;;35.75;29.25;;;;;11.34;64.75;101876.34;5022264;28;45401;-68
2022/03/09 09:33:42;;;;;;;;;29.00;27.00;;;;;11.73;63.52;101869.47;5021928;28;45481;-69
2022/03/09 09:36:08;;;;;;;;;36.75;27.00;;;;;11.65;62.95;101863.78;5022390;28;45268;-67
2022/03/09 09:38:33;;;;;;;;;39.00;33.00;;;;;12.03;61.97;101869.63;5022144;28;45447;-67
2022/03/09 09:40:59;;;;;;;;;29.75;27.25;;;;;12.39;61.12;101862.00;5022521;28;45329;-68
2022/03/09 09:43:25;;;;;;;;;26.75;26.00;;;;;12.44;60.70;101868.78;5021998;28;45244;-68
2022/03/09 09:45:52;;;;;;;;;30.00;29.50;;;;;12.57;59.28;101863.13;5023145;28;45542;-68
2022/03/09 09:48:19;;;;;;;;;32.00;28.75;;;;;12.68;60.33;101856.75;5021866;28;45343;-68
2022/03/09 09:50:45;;;;;;;;;18.25;14.25;;;;;12.63;59.00;101862.59;5022604;28;45174;-68
2022/03/09 09:53:13;;;;;;;;;29.00;26.00;;;;;12.48;59.54;101863.94;5022065;28;45449;-68
2022/03/09 09:55:40;;;;;;;;;28.50;26.00;;;;;12.32;59.85;101858.09;5016738;28;45575;-68
2022/03/09 09:58:05;;;;;;;;;36.25;28.75;;;;;12.39;60.13;101857.44;5021546;28;45411;-68
2022/03/09 10:00:32;;;;;;;;;30.50;26.50;;;;;12.62;60.50;101852.69;5021668;28;45504;-68
2022/03/09 10:02:58;;;;;;;;;25.75;22.25;;;;;12.73;59.31;101851.72;5022051;28;45675;-68
2022/03/09 10:05:24;;;;;;;;;25.75;24.75;;;;;12.58;59.32;101856.66;5022643;28;45406;-67
2022/03/09 10:08:05;;;;;;;;;25.75;22.75;;;;;12.19;61.15;101858.28;5021787;28;45311;-67
2022/03/09 10:10:40;;;;;;;;;24.25;22.75;;;;;12.14;61.33;101860.53;5022115;28;45332;-68
2022/03/09 10:13:18;;;;;;;;;21.25;20.50;;;;;11.98;61.45;101862.84;5021643;28;45379;-67
2022/03/09 10:15:48;;;;;;;;;26.00;21.00;;;;;12.28;61.61;101854.75;5022640;28;45482;-67
2022/03/09 10:18:18;;;;;;;;;22.50;19.75;;;;;12.14;61.42;101860.53;5021218;28;45580;-67
2022/03/09 10:20:44;;;;;;;;;25.75;18.00;;;;;12.56;61.43;101858.69;5021731;28;45417;-67
2022/03/09 10:23:10;;;;;;;;;18.00;15.25;;;;;13.09;59.79;101853.91;5021033;28;45730;-67
2022/03/09 10:25:38;;;;;;;;;20.00;18.50;;;;;13.19;58.12;101856.72;5022638;28;45377;-67
2022/03/09 10:28:11;;;;;;;;;18.75;15.75;;;;;13.31;58.42;101852.88;5019536;28;47333;-67
2022/03/09 10:30:40;;;;;;;;;19.00;16.67;;;;;13.52;57.33;101850.91;5018339;28;45383;-68
2022/03/09 10:33:06;;;;;;;;;18.25;17.00;;;;;13.29;57.56;101840.38;5021378;28;45458;-69
2022/03/09 10:35:31;;;;;;;;;17.00;17.00;;;;;13.47;58.16;101849.59;5018267;28;45339;-68
2022/03/09 10:38:06;;;;;;;;;18.00;17.00;;;;;13.59;57.22;101843.00;5021392;28;45360;-68
2022/03/09 10:40:40;;;;;;;;;19.50;16.00;;;;;13.60;57.10;101836.53;5021970;28;45461;-69
2022/03/09 10:43:38;;;;;;;;;20.00;17.75;;;;;13.67;57.46;101843.16;5021677;28;45453;-68
2022/03/09 10:46:08;;;;;;;;;14.67;14.67;;;;;13.57;56.83;101839.56;5021181;28;45301;-68
2022/03/09 10:49:02;;;;;;;;;19.75;17.00;;;;;13.40;57.50;101834.78;5016272;28;45400;-68
2022/03/09 10:51:36;;;;;;;;;17.75;14.50;;;;;13.52;57.14;101845.44;5013987;28;45327;-68
2022/03/09 10:54:07;;;;;;;;;15.00;13.50;;;;;13.10;57.96;101838.41;5019706;28;45481;-67
2022/03/09 10:56:34;;;;;;;;;18.50;17.25;;;;;13.15;58.00;101845.19;5022263;28;45386;-68
2022/03/09 10:59:14;;;;;;;;;18.00;18.00;;;;;13.15;57.61;101831.56;5020136;28;47398;-68
2022/03/09 11:01:41;;;;;;;;;23.75;20.00;;;;;13.22;57.91;101837.34;5022308;28;45320;-67
2022/03/09 11:04:17;;;;;;;;;24.50;23.00;;;;;13.11;58.53;101841.00;5021388;28;45447;-66
2022/03/09 11:06:48;;;;;;;;;20.25;19.25;;;;;13.09;58.59;101842.13;5019914;28;45192;-67
2022/03/09 11:09:16;;;;;;;;;27.50;22.25;;;;;12.95;59.23;101837.03;5021644;28;45999;-67
2022/03/09 11:11:42;;;;;;;;;25.25;21.50;;;;;12.81;60.04;101830.97;5021962;28;45228;-65
2022/03/09 11:14:08;;;;;;;;;24.25;22.50;;;;;13.01;58.93;101836.50;5021762;28;45323;-66